Lima Township, Michigan
Current Conditions -  °F | °C
As of 3:23 AM on Friday 24 Oct 2014 (Local Time) from KARB Reporting Station
Haze Haze  
Wind Chill: 31°   Ceiling: Unl
Heat Index: 31°   Visibility: 3mi
Dew Point: 28°   Wind: 0mph
Humidity: 89%   Direction: NA
Pressure: 30.09"   Gusts: NA
Location:  42.3129°N, 84.0322°W
Report Text: KARB 240723Z AUTO 00000KT 3SM BR CLR M01/M02 A3009 RMK AO2 T10061022
Loading
Personal Weather Stations






























Interactive Weather Map
Tropical Storm Tracking
New forecast layout! Learn more

10-Day Weather Forecast

Advertisements
Track Severe Weather on mobile